Time;durP1;ratioP1;P1;durP2;ratioP2;P2;SDS_P1;SDS_P2;PMS_P1;PMS_P2;Temp;Humidity;BMP_temperature;BMP_pressure;BME280_temperature;BME280_humidity;BME280_pressure;Samples;Min_cycle;Max_cycle;Signal;HPM_P1;HPM_P2
2023/11/18 00:00:31;;;;;;;26.63;15.07;;;;;;;;;;5089297;28;20020;-86
2023/11/18 00:02:56;;;;;;;25.00;15.75;;;;;;;;;;5094539;28;20022;-87
2023/11/18 00:05:23;;;;;;;36.40;15.23;;;;;;;;;;5089433;28;20016;-86
2023/11/18 00:07:49;;;;;;;22.65;14.02;;;;;;;;;;5094239;28;20277;-86
2023/11/18 00:10:14;;;;;;;25.88;14.07;;;;;;;;;;5090889;28;20020;-86
2023/11/18 00:12:41;;;;;;;27.90;14.05;;;;;;;;;;5093626;28;20127;-86
2023/11/18 00:15:09;;;;;;;27.02;15.02;;;;;;;;;;5093879;28;20477;-87
2023/11/18 00:17:34;;;;;;;30.63;15.82;;;;;;;;;;5088643;28;20028;-86
2023/11/18 00:20:00;;;;;;;24.63;14.90;;;;;;;;;;5083631;28;20465;-86
2023/11/18 00:22:25;;;;;;;29.00;15.57;;;;;;;;;;5095803;28;20480;-86
2023/11/18 00:24:51;;;;;;;27.10;14.43;;;;;;;;;;5097253;28;20381;-87
2023/11/18 00:27:17;;;;;;;22.48;12.80;;;;;;;;;;5096397;28;20264;-86
2023/11/18 00:29:43;;;;;;;25.93;13.27;;;;;;;;;;5091899;28;20024;-87
2023/11/18 00:32:08;;;;;;;30.73;14.32;;;;;;;;;;5093673;28;20299;-86
2023/11/18 00:34:34;;;;;;;24.67;13.57;;;;;;;;;;5082578;28;20469;-86
2023/11/18 00:37:00;;;;;;;22.27;12.33;;;;;;;;;;5090004;28;20780;-86
2023/11/18 00:39:26;;;;;;;30.58;14.10;;;;;;;;;;5094249;28;20329;-87
2023/11/18 00:41:52;;;;;;;26.42;13.80;;;;;;;;;;5090818;28;20023;-86
2023/11/18 00:44:17;;;;;;;25.53;14.53;;;;;;;;;;5093504;28;20024;-87
2023/11/18 00:46:43;;;;;;;23.33;12.63;;;;;;;;;;5088671;28;20035;-85
2023/11/18 00:49:08;;;;;;;23.30;13.10;;;;;;;;;;5093228;28;20385;-87
2023/11/18 00:51:33;;;;;;;21.10;11.80;;;;;;;;;;5092269;28;20248;-87
2023/11/18 00:54:00;;;;;;;24.37;13.53;;;;;;;;;;5093500;28;20416;-86
2023/11/18 00:56:26;;;;;;;21.30;12.15;;;;;;;;;;5086949;28;20269;-87
2023/11/18 00:58:52;;;;;;;21.30;11.07;;;;;;;;;;5085111;28;20077;-86
2023/11/18 01:01:18;;;;;;;22.38;11.02;;;;;;;;;;5084725;28;20020;-87
2023/11/18 01:03:46;;;;;;;21.02;11.95;;;;;;;;;;5089504;28;20070;-86
2023/11/18 01:06:12;;;;;;;20.33;11.75;;;;;;;;;;5090579;28;20075;-86
2023/11/18 01:08:37;;;;;;;28.83;13.57;;;;;;;;;;5088128;28;20426;-86
2023/11/18 01:11:04;;;;;;;22.05;13.15;;;;;;;;;;5089331;28;20019;-88
2023/11/18 01:13:29;;;;;;;32.83;14.50;;;;;;;;;;5088384;28;20131;-86
2023/11/18 01:15:54;;;;;;;26.73;14.30;;;;;;;;;;5082201;28;20112;-86
2023/11/18 01:18:20;;;;;;;31.98;16.65;;;;;;;;;;5080812;28;20092;-86
2023/11/18 01:20:46;;;;;;;25.05;13.82;;;;;;;;;;5091523;28;20357;-86
2023/11/18 01:23:12;;;;;;;22.80;13.00;;;;;;;;;;5090323;28;20506;-86
2023/11/18 01:25:37;;;;;;;24.15;13.65;;;;;;;;;;5092235;28;20103;-86
2023/11/18 01:28:03;;;;;;;23.97;13.87;;;;;;;;;;5092859;28;20111;-86
2023/11/18 01:30:29;;;;;;;28.52;13.80;;;;;;;;;;5092736;28;20355;-86
2023/11/18 01:32:54;;;;;;;22.03;13.30;;;;;;;;;;5092654;28;20107;-86
2023/11/18 01:35:19;;;;;;;23.30;12.30;;;;;;;;;;5091439;28;20367;-86
2023/11/18 01:37:45;;;;;;;22.67;13.25;;;;;;;;;;5092877;28;20578;-86
2023/11/18 01:40:13;;;;;;;26.75;12.73;;;;;;;;;;5091447;28;20024;-86
2023/11/18 01:42:38;;;;;;;20.55;11.80;;;;;;;;;;5089090;28;20027;-86
2023/11/18 01:45:03;;;;;;;24.90;11.75;;;;;;;;;;5092387;28;20023;-88
2023/11/18 01:47:32;;;;;;;30.25;12.88;;;;;;;;;;5090350;28;20077;-86
2023/11/18 01:49:57;;;;;;;22.55;11.32;;;;;;;;;;5090733;28;20024;-86
2023/11/18 01:52:22;;;;;;;22.45;11.63;;;;;;;;;;5090296;28;20035;-86
2023/11/18 01:54:48;;;;;;;21.07;11.50;;;;;;;;;;5092962;28;20031;-86
2023/11/18 01:57:15;;;;;;;20.88;11.07;;;;;;;;;;5085162;28;20265;-87
2023/11/18 01:59:41;;;;;;;18.00;8.90;;;;;;;;;;5070352;28;20020;-86
2023/11/18 02:02:06;;;;;;;21.63;10.70;;;;;;;;;;5079174;28;20119;-86
2023/11/18 02:04:32;;;;;;;17.13;10.02;;;;;;;;;;5091429;28;20303;-87
2023/11/18 02:06:58;;;;;;;19.80;10.40;;;;;;;;;;5091976;28;20020;-86
2023/11/18 02:09:28;;;;;;;17.90;9.98;;;;;;;;;;5090983;28;20253;-87
2023/11/18 02:11:56;;;;;;;18.88;9.73;;;;;;;;;;5088583;28;20048;-86
2023/11/18 02:14:25;;;;;;;19.67;9.82;;;;;;;;;;5092116;28;20528;-86
2023/11/18 02:16:53;;;;;;;26.15;11.18;;;;;;;;;;5092457;28;20073;-86
2023/11/18 02:19:24;;;;;;;16.05;9.75;;;;;;;;;;5086687;28;20028;-86
2023/11/18 02:21:49;;;;;;;18.10;9.35;;;;;;;;;;5091910;28;20028;-87
2023/11/18 02:24:24;;;;;;;17.02;9.55;;;;;;;;;;5091247;28;20070;-86
2023/11/18 02:26:50;;;;;;;18.08;10.52;;;;;;;;;;5098000;28;20124;-87
2023/11/18 02:29:15;;;;;;;20.20;10.30;;;;;;;;;;5099815;28;20497;-86
2023/11/18 02:31:41;;;;;;;18.10;10.57;;;;;;;;;;5096638;28;20487;-86
2023/11/18 02:34:15;;;;;;;18.60;9.85;;;;;;;;;;5097196;28;20698;-86
2023/11/18 02:36:45;;;;;;;19.27;10.15;;;;;;;;;;5108170;28;20030;-87
2023/11/18 02:39:17;;;;;;;19.85;9.45;;;;;;;;;;5107005;28;20027;-86
2023/11/18 02:41:45;;;;;;;16.10;9.13;;;;;;;;;;5096651;28;20027;-86
2023/11/18 02:44:11;;;;;;;15.07;9.23;;;;;;;;;;5112148;28;20054;-86
2023/11/18 02:46:36;;;;;;;16.38;9.77;;;;;;;;;;5111546;28;20028;-87
2023/11/18 02:49:02;;;;;;;19.67;10.70;;;;;;;;;;5093414;28;20035;-86
2023/11/18 02:51:27;;;;;;;20.42;11.20;;;;;;;;;;5094506;28;20016;-86
2023/11/18 02:53:53;;;;;;;19.65;9.05;;;;;;;;;;5096018;28;20464;-86
2023/11/18 02:56:18;;;;;;;19.77;10.10;;;;;;;;;;5105844;28;20023;-86
2023/11/18 02:58:43;;;;;;;16.27;9.20;;;;;;;;;;5097923;28;20252;-86
2023/11/18 03:01:09;;;;;;;21.98;10.27;;;;;;;;;;5098460;28;20057;-87
2023/11/18 03:03:34;;;;;;;17.00;9.40;;;;;;;;;;5111672;28;20453;-87
2023/11/18 03:06:00;;;;;;;20.75;10.52;;;;;;;;;;5105561;28;20351;-86
2023/11/18 03:08:25;;;;;;;24.05;11.38;;;;;;;;;;5105556;28;20024;-86
2023/11/18 03:10:52;;;;;;;18.70;9.95;;;;;;;;;;5116120;28;20077;-86
2023/11/18 03:13:17;;;;;;;17.67;9.32;;;;;;;;;;5090726;28;20140;-86
2023/11/18 03:15:42;;;;;;;18.70;9.57;;;;;;;;;;5116425;28;20098;-86
2023/11/18 03:18:08;;;;;;;22.73;11.27;;;;;;;;;;5113398;28;20283;-86
2023/11/18 03:20:33;;;;;;;19.67;10.75;;;;;;;;;;5097840;28;20304;-86
2023/11/18 03:22:59;;;;;;;21.83;11.50;;;;;;;;;;5105380;28;20031;-86
2023/11/18 03:25:25;;;;;;;18.73;10.15;;;;;;;;;;5116354;28;20136;-86
2023/11/18 03:27:50;;;;;;;18.90;10.53;;;;;;;;;;5116006;28;20541;-86
2023/11/18 03:30:16;;;;;;;16.60;9.00;;;;;;;;;;5116203;28;20022;-86
2023/11/18 03:32:42;;;;;;;20.02;9.45;;;;;;;;;;5111062;28;20282;-86
2023/11/18 03:35:08;;;;;;;17.77;8.87;;;;;;;;;;5116107;28;20031;-86
2023/11/18 03:37:43;;;;;;;14.98;9.13;;;;;;;;;;5099315;28;20271;-86
2023/11/18 03:40:09;;;;;;;18.92;9.23;;;;;;;;;;5093077;28;20059;-87
2023/11/18 03:42:35;;;;;;;16.80;9.75;;;;;;;;;;5104422;28;20492;-87
2023/11/18 03:45:00;;;;;;;19.23;9.95;;;;;;;;;;5102823;28;20016;-86
2023/11/18 03:47:26;;;;;;;15.27;8.25;;;;;;;;;;5093753;28;20123;-87
2023/11/18 03:49:51;;;;;;;16.77;8.60;;;;;;;;;;5105291;28;20046;-87
2023/11/18 03:52:16;;;;;;;17.80;8.63;;;;;;;;;;5104955;28;20480;-86
2023/11/18 03:54:41;;;;;;;17.17;7.77;;;;;;;;;;5105475;28;20366;-86
2023/11/18 03:57:07;;;;;;;17.17;8.17;;;;;;;;;;5094601;28;20347;-86
2023/11/18 03:59:32;;;;;;;19.33;9.10;;;;;;;;;;5098284;28;20335;-86
2023/11/18 04:01:57;;;;;;;17.70;8.37;;;;;;;;;;5107102;28;20080;-86
2023/11/18 04:04:23;;;;;;;19.93;9.30;;;;;;;;;;5108961;28;20265;-86
2023/11/18 04:06:48;;;;;;;17.00;9.38;;;;;;;;;;5092532;28;20270;-87
2023/11/18 04:09:14;;;;;;;20.90;10.88;;;;;;;;;;5094865;28;20520;-86
2023/11/18 04:11:40;;;;;;;14.77;8.93;;;;;;;;;;5098325;28;20052;-86
2023/11/18 04:14:05;;;;;;;19.35;10.50;;;;;;;;;;5115085;28;20032;-87
2023/11/18 04:16:30;;;;;;;18.02;9.55;;;;;;;;;;5103418;28;20052;-86
2023/11/18 04:18:55;;;;;;;18.33;8.67;;;;;;;;;;5093177;28;20030;-86
2023/11/18 04:21:21;;;;;;;17.90;9.00;;;;;;;;;;5093458;28;20260;-88
2023/11/18 04:23:46;;;;;;;14.13;8.97;;;;;;;;;;5099999;28;20261;-86
2023/11/18 04:26:12;;;;;;;12.38;7.50;;;;;;;;;;5093175;28;20590;-86
2023/11/18 04:28:37;;;;;;;12.48;8.25;;;;;;;;;;5101696;28;20055;-87
2023/11/18 04:31:02;;;;;;;13.43;8.07;;;;;;;;;;5092711;28;20056;-86
2023/11/18 04:33:29;;;;;;;18.58;8.80;;;;;;;;;;5103096;28;20103;-86
2023/11/18 04:35:57;;;;;;;12.82;8.27;;;;;;;;;;5081847;28;20016;-86
2023/11/18 04:38:22;;;;;;;16.15;7.78;;;;;;;;;;5083232;28;20020;-86
2023/11/18 04:40:47;;;;;;;19.10;8.18;;;;;;;;;;5097535;28;20098;-86
2023/11/18 04:43:13;;;;;;;16.13;9.13;;;;;;;;;;5092949;28;20024;-86
2023/11/18 04:45:38;;;;;;;11.32;7.90;;;;;;;;;;5091262;28;20020;-86
2023/11/18 04:48:04;;;;;;;14.73;8.27;;;;;;;;;;5093075;28;20038;-86
2023/11/18 04:50:30;;;;;;;11.88;7.70;;;;;;;;;;5089830;28;20024;-86
2023/11/18 04:52:55;;;;;;;16.52;8.55;;;;;;;;;;5092350;28;20468;-86
2023/11/18 04:55:20;;;;;;;11.05;7.38;;;;;;;;;;5096546;28;20496;-86
2023/11/18 04:57:45;;;;;;;13.90;8.20;;;;;;;;;;5096587;28;20477;-86
2023/11/18 05:00:11;;;;;;;11.93;7.50;;;;;;;;;;5096503;28;20245;-86
2023/11/18 05:02:39;;;;;;;13.70;8.35;;;;;;;;;;5098288;28;20268;-87
2023/11/18 05:05:06;;;;;;;16.20;8.05;;;;;;;;;;5097496;28;20103;-86
2023/11/18 05:07:31;;;;;;;16.05;9.05;;;;;;;;;;5099047;28;20038;-86
2023/11/18 05:09:56;;;;;;;16.73;8.18;;;;;;;;;;5107530;28;20444;-86
2023/11/18 05:12:22;;;;;;;19.60;8.43;;;;;;;;;;5095456;28;20479;-86
2023/11/18 05:14:49;;;;;;;12.93;8.60;;;;;;;;;;5107762;28;20543;-87
2023/11/18 05:17:14;;;;;;;12.88;7.43;;;;;;;;;;5093460;28;20043;-86
2023/11/18 05:19:40;;;;;;;14.35;8.15;;;;;;;;;;5097624;28;20084;-86
2023/11/18 05:22:06;;;;;;;18.43;8.67;;;;;;;;;;5088857;28;20028;-86
2023/11/18 05:24:31;;;;;;;15.80;8.18;;;;;;;;;;5096149;28;20086;-86
2023/11/18 05:26:57;;;;;;;13.38;8.10;;;;;;;;;;5093445;28;20458;-86
2023/11/18 05:29:23;;;;;;;23.58;8.90;;;;;;;;;;5099159;28;20016;-86
2023/11/18 05:31:50;;;;;;;14.32;8.70;;;;;;;;;;5091759;28;20066;-87
2023/11/18 05:34:15;;;;;;;15.60;7.47;;;;;;;;;;5094038;28;20045;-86
2023/11/18 05:36:41;;;;;;;21.00;7.83;;;;;;;;;;5092018;28;20036;-86
2023/11/18 05:39:07;;;;;;;13.30;7.75;;;;;;;;;;5091929;28;20268;-86
2023/11/18 05:41:35;;;;;;;15.45;7.63;;;;;;;;;;5095376;28;20032;-86
2023/11/18 05:44:00;;;;;;;10.93;6.90;;;;;;;;;;5091495;28;20035;-87
2023/11/18 05:46:29;;;;;;;13.32;7.00;;;;;;;;;;5092956;28;20028;-86
2023/11/18 05:48:55;;;;;;;19.50;8.20;;;;;;;;;;5094950;28;20489;-86
2023/11/18 05:51:21;;;;;;;18.83;7.90;;;;;;;;;;5102252;28;20035;-86
2023/11/18 05:53:47;;;;;;;19.88;8.70;;;;;;;;;;5102232;28;20051;-86
2023/11/18 05:56:12;;;;;;;15.48;8.07;;;;;;;;;;5094686;28;20070;-86
2023/11/18 05:58:43;;;;;;;11.82;7.20;;;;;;;;;;5091411;28;20096;-87
2023/11/18 06:01:08;;;;;;;13.82;7.78;;;;;;;;;;5102014;28;20449;-86
2023/11/18 06:03:33;;;;;;;13.73;6.85;;;;;;;;;;5104411;28;20032;-87
2023/11/18 06:05:58;;;;;;;13.25;6.68;;;;;;;;;;5101378;28;20029;-86
2023/11/18 06:08:24;;;;;;;12.20;6.03;;;;;;;;;;5099223;28;20020;-87
2023/11/18 06:10:51;;;;;;;10.77;5.88;;;;;;;;;;5100544;28;20020;-86
2023/11/18 06:13:16;;;;;;;11.65;6.32;;;;;;;;;;5096447;28;20043;-86
2023/11/18 06:15:43;;;;;;;10.90;5.50;;;;;;;;;;5109385;28;20422;-86
2023/11/18 06:18:08;;;;;;;8.30;5.20;;;;;;;;;;5110533;28;20260;-86
2023/11/18 06:20:34;;;;;;;11.43;5.70;;;;;;;;;;5095270;28;20020;-86
2023/11/18 06:23:00;;;;;;;11.60;5.47;;;;;;;;;;5098650;28;20032;-87
2023/11/18 06:25:25;;;;;;;11.13;6.83;;;;;;;;;;5091598;28;20373;-87
2023/11/18 06:27:52;;;;;;;12.57;6.80;;;;;;;;;;5095481;28;20027;-86
2023/11/18 06:30:17;;;;;;;11.18;5.65;;;;;;;;;;5098635;28;20019;-86
2023/11/18 06:32:43;;;;;;;11.20;6.00;;;;;;;;;;5104483;28;20023;-86
2023/11/18 06:35:08;;;;;;;8.30;5.20;;;;;;;;;;5104269;28;20364;-87
2023/11/18 06:37:33;;;;;;;11.48;5.68;;;;;;;;;;5098980;28;20280;-87
2023/11/18 06:39:59;;;;;;;9.40;5.22;;;;;;;;;;5104164;28;20057;-86
2023/11/18 06:42:24;;;;;;;10.90;6.43;;;;;;;;;;5097992;28;20024;-86
2023/11/18 06:44:49;;;;;;;11.55;5.55;;;;;;;;;;5100689;28;20260;-86
2023/11/18 06:47:18;;;;;;;7.53;4.93;;;;;;;;;;5080989;28;20392;-88
2023/11/18 06:49:43;;;;;;;9.43;5.55;;;;;;;;;;5096971;28;20016;-86
2023/11/18 06:52:11;;;;;;;8.50;4.57;;;;;;;;;;5087537;28;20031;-87
2023/11/18 06:54:37;;;;;;;12.93;5.00;;;;;;;;;;5084038;28;20028;-87
2023/11/18 06:57:03;;;;;;;8.27;4.72;;;;;;;;;;5085218;28;20380;-88
2023/11/18 06:59:28;;;;;;;8.98;4.80;;;;;;;;;;5107088;28;20081;-87
2023/11/18 07:01:53;;;;;;;17.17;5.17;;;;;;;;;;5110145;28;20028;-84
2023/11/18 07:04:19;;;;;;;13.10;5.60;;;;;;;;;;5092319;28;20777;-84
2023/11/18 07:06:44;;;;;;;7.00;4.30;;;;;;;;;;5100136;28;20272;-84
2023/11/18 07:09:13;;;;;;;8.68;4.43;;;;;;;;;;5096436;28;20031;-84
2023/11/18 07:11:41;;;;;;;8.98;3.67;;;;;;;;;;5103660;28;20039;-85
2023/11/18 07:14:09;;;;;;;8.50;4.70;;;;;;;;;;5101254;28;20415;-84
2023/11/18 07:16:34;;;;;;;11.82;4.03;;;;;;;;;;5095103;28;20054;-83
2023/11/18 07:18:59;;;;;;;9.05;3.78;;;;;;;;;;5094844;28;20539;-83
2023/11/18 07:21:24;;;;;;;7.53;4.23;;;;;;;;;;5091412;28;20020;-84
2023/11/18 07:23:50;;;;;;;6.80;4.17;;;;;;;;;;5080928;28;20517;-84
2023/11/18 07:26:15;;;;;;;16.63;5.10;;;;;;;;;;5090053;28;20024;-86
2023/11/18 07:28:40;;;;;;;7.93;4.87;;;;;;;;;;5099618;28;20661;-88
2023/11/18 07:31:05;;;;;;;9.20;3.70;;;;;;;;;;5106232;28;20775;-87
2023/11/18 07:33:32;;;;;;;8.47;4.43;;;;;;;;;;5100426;28;20418;-87
2023/11/18 07:35:57;;;;;;;15.50;5.18;;;;;;;;;;5091705;28;20334;-88
2023/11/18 07:38:23;;;;;;;9.32;4.18;;;;;;;;;;5106394;28;20464;-88
2023/11/18 07:40:48;;;;;;;6.15;3.92;;;;;;;;;;5092938;28;20031;-88
2023/11/18 07:43:16;;;;;;;9.05;4.55;;;;;;;;;;5094231;28;20020;-88
2023/11/18 07:45:42;;;;;;;8.98;4.07;;;;;;;;;;5103955;28;20027;-89
2023/11/18 07:48:08;;;;;;;9.45;4.53;;;;;;;;;;5095044;28;20027;-89
2023/11/18 07:50:34;;;;;;;12.27;5.30;;;;;;;;;;5103140;28;20062;-88
2023/11/18 07:52:59;;;;;;;11.73;6.45;;;;;;;;;;5093742;28;20026;-89
2023/11/18 07:55:24;;;;;;;11.50;7.13;;;;;;;;;;5092683;28;20028;-87
2023/11/18 07:57:49;;;;;;;14.63;5.95;;;;;;;;;;5113088;28;20487;-88
2023/11/18 08:00:15;;;;;;;13.97;6.87;;;;;;;;;;5104491;28;20013;-89
2023/11/18 08:02:40;;;;;;;10.70;5.30;;;;;;;;;;5091320;28;20020;-89
2023/11/18 08:05:13;;;;;;;9.88;5.32;;;;;;;;;;5110496;28;20016;-89
2023/11/18 08:07:38;;;;;;;10.93;5.35;;;;;;;;;;5108214;28;20479;-87
2023/11/18 08:10:04;;;;;;;8.68;4.82;;;;;;;;;;5093111;28;20028;-89
2023/11/18 08:12:32;;;;;;;8.13;4.53;;;;;;;;;;5100398;28;20138;-88
2023/11/18 08:15:00;;;;;;;11.25;4.38;;;;;;;;;;5100352;28;20060;-89
2023/11/18 08:17:25;;;;;;;7.72;4.68;;;;;;;;;;5090556;28;20028;-88
2023/11/18 08:19:54;;;;;;;8.13;4.55;;;;;;;;;;5092793;28;20040;-88
2023/11/18 08:22:19;;;;;;;7.60;4.22;;;;;;;;;;5092686;28;20457;-88
2023/11/18 08:24:45;;;;;;;10.18;4.25;;;;;;;;;;5102279;28;20074;-88
2023/11/18 08:27:11;;;;;;;6.90;3.67;;;;;;;;;;5088891;28;20032;-88
2023/11/18 08:29:37;;;;;;;9.77;6.20;;;;;;;;;;5094368;28;20028;-87
2023/11/18 08:32:03;;;;;;;8.63;5.00;;;;;;;;;;5104332;28;20047;-87
2023/11/18 08:34:28;;;;;;;8.52;5.20;;;;;;;;;;5092469;28;20491;-88
2023/11/18 08:36:54;;;;;;;9.45;4.78;;;;;;;;;;5090053;28;20107;-90
2023/11/18 08:39:20;;;;;;;9.70;4.90;;;;;;;;;;5092178;28;20027;-89
2023/11/18 08:41:45;;;;;;;9.75;5.20;;;;;;;;;;5096778;28;20248;-88
2023/11/18 08:44:13;;;;;;;7.85;4.55;;;;;;;;;;5097543;28;20457;-88
2023/11/18 08:46:39;;;;;;;7.03;5.13;;;;;;;;;;5096350;28;20066;-88
2023/11/18 08:49:10;;;;;;;7.60;4.63;;;;;;;;;;5082027;28;20484;-89
2023/11/18 08:51:36;;;;;;;10.35;5.28;;;;;;;;;;5091202;28;20023;-88
2023/11/18 08:54:16;;;;;;;5.28;3.45;;;;;;;;;;5092800;28;20027;-90
2023/11/18 08:56:42;;;;;;;8.43;3.97;;;;;;;;;;5088182;28;20027;-89
2023/11/18 08:59:08;;;;;;;7.45;3.97;;;;;;;;;;5095862;28;20024;-89
2023/11/18 09:01:34;;;;;;;9.10;4.20;;;;;;;;;;5089993;28;20091;-88
2023/11/18 09:04:01;;;;;;;5.88;3.45;;;;;;;;;;5087045;28;20036;-89
2023/11/18 09:06:28;;;;;;;8.50;4.25;;;;;;;;;;5094277;28;20114;-88
2023/11/18 09:08:53;;;;;;;9.45;3.97;;;;;;;;;;5095430;28;20103;-88
2023/11/18 09:11:19;;;;;;;6.85;3.97;;;;;;;;;;5086411;28;20112;-89
2023/11/18 09:13:47;;;;;;;10.35;4.30;;;;;;;;;;5085165;28;20114;-88
2023/11/18 09:16:12;;;;;;;8.32;3.53;;;;;;;;;;5092668;28;20063;-89
2023/11/18 09:18:39;;;;;;;9.05;3.60;;;;;;;;;;5093425;28;20065;-89
2023/11/18 09:21:06;;;;;;;7.35;3.78;;;;;;;;;;5092710;28;20023;-89
2023/11/18 09:23:34;;;;;;;10.13;3.45;;;;;;;;;;5092505;28;20047;-89
2023/11/18 09:25:59;;;;;;;6.13;3.60;;;;;;;;;;5091908;28;20020;-89
2023/11/18 09:28:29;;;;;;;5.47;3.03;;;;;;;;;;5086316;28;20027;-89
2023/11/18 09:30:57;;;;;;;9.43;4.03;;;;;;;;;;5092175;28;20506;-88
2023/11/18 09:33:25;;;;;;;6.18;3.85;;;;;;;;;;5092999;28;20020;-89
2023/11/18 09:36:12;;;;;;;4.38;2.95;;;;;;;;;;5084910;28;20457;-89
2023/11/18 09:38:41;;;;;;;9.30;3.22;;;;;;;;;;5083405;28;20042;-89
2023/11/18 09:41:07;;;;;;;8.57;2.38;;;;;;;;;;5085228;28;20019;-89
2023/11/18 09:43:36;;;;;;;6.25;2.78;;;;;;;;;;5095198;28;20036;-89
2023/11/18 09:46:14;;;;;;;6.60;2.90;;;;;;;;;;5092016;28;20028;-89
2023/11/18 09:48:52;;;;;;;4.80;2.65;;;;;;;;;;5093142;28;20048;-88
2023/11/18 09:51:24;;;;;;;3.70;2.33;;;;;;;;;;5084581;28;20450;-87
2023/11/18 09:53:53;;;;;;;6.25;2.90;;;;;;;;;;5096844;28;20091;-88
2023/11/18 09:56:26;;;;;;;5.47;2.25;;;;;;;;;;5104385;28;20042;-90
2023/11/18 09:58:59;;;;;;;7.15;2.22;;;;;;;;;;5088793;28;20024;-88
2023/11/18 10:01:27;;;;;;;5.45;1.92;;;;;;;;;;5092689;28;20111;-88
2023/11/18 10:03:53;;;;;;;9.15;2.58;;;;;;;;;;5094708;28;20027;-90
2023/11/18 10:06:21;;;;;;;5.63;2.58;;;;;;;;;;5092377;28;20054;-88
2023/11/18 10:08:48;;;;;;;7.53;2.60;;;;;;;;;;5090700;28;20068;-89
2023/11/18 10:11:13;;;;;;;5.03;2.25;;;;;;;;;;5088749;28;20075;-88
2023/11/18 10:13:40;;;;;;;13.50;2.70;;;;;;;;;;5090714;28;20433;-88
2023/11/18 10:16:09;;;;;;;7.10;2.50;;;;;;;;;;5091300;28;20371;-89
2023/11/18 10:18:37;;;;;;;14.77;2.53;;;;;;;;;;5094770;28;20027;-89
2023/11/18 10:21:07;;;;;;;6.15;2.60;;;;;;;;;;5106132;28;20016;-88
2023/11/18 10:23:33;;;;;;;6.38;2.42;;;;;;;;;;5098110;28;20513;-89
2023/11/18 10:26:00;;;;;;;3.63;2.30;;;;;;;;;;5102228;28;20095;-89
2023/11/18 10:28:32;;;;;;;4.50;2.10;;;;;;;;;;5103337;28;20027;-91
2023/11/18 10:30:58;;;;;;;3.50;2.30;;;;;;;;;;5086784;28;20405;-89
2023/11/18 10:33:32;;;;;;;5.45;2.58;;;;;;;;;;5092383;28;20368;-88
2023/11/18 10:36:02;;;;;;;4.28;2.20;;;;;;;;;;5086096;28;20047;-89
2023/11/18 10:38:29;;;;;;;4.72;2.30;;;;;;;;;;5071803;28;20074;-89
2023/11/18 10:40:55;;;;;;;4.53;2.28;;;;;;;;;;5091596;28;20034;-88
2023/11/18 10:43:24;;;;;;;5.03;2.13;;;;;;;;;;5111328;28;20028;-89
2023/11/18 10:45:49;;;;;;;4.90;2.22;;;;;;;;;;5104021;28;20030;-88
2023/11/18 10:48:16;;;;;;;8.32;1.95;;;;;;;;;;5108946;28;20024;-88
2023/11/18 10:50:42;;;;;;;8.73;2.20;;;;;;;;;;5094442;28;20112;-88
2023/11/18 10:53:11;;;;;;;3.60;1.92;;;;;;;;;;5090293;28;20142;-89
2023/11/18 10:55:40;;;;;;;6.85;2.15;;;;;;;;;;5091900;28;20103;-88
2023/11/18 10:58:07;;;;;;;4.38;1.73;;;;;;;;;;5086891;28;20488;-89
2023/11/18 11:00:55;;;;;;;10.02;2.22;;;;;;;;;;5103566;28;20016;-88
2023/11/18 11:03:23;;;;;;;7.53;2.15;;;;;;;;;;5090193;28;20066;-89
2023/11/18 11:05:49;;;;;;;4.60;2.00;;;;;;;;;;5097181;28;20015;-88
2023/11/18 11:08:16;;;;;;;7.78;2.20;;;;;;;;;;5094581;28;20103;-88
2023/11/18 11:10:41;;;;;;;3.83;2.05;;;;;;;;;;5093221;28;20046;-88
2023/11/18 11:13:07;;;;;;;6.85;1.85;;;;;;;;;;5080824;28;20482;-88
2023/11/18 11:15:35;;;;;;;5.80;2.38;;;;;;;;;;5078563;28;20020;-89
2023/11/18 11:18:14;;;;;;;13.30;5.25;;;;;;;;;;5076658;28;20033;-89
2023/11/18 11:20:48;;;;;;;12.60;4.32;;;;;;;;;;5076991;28;20111;-88
2023/11/18 11:23:43;;;;;;;11.32;4.03;;;;;;;;;;5074586;28;20035;-89
2023/11/18 11:26:09;;;;;;;6.22;2.58;;;;;;;;;;5082259;28;20021;-88
2023/11/18 11:28:46;;;;;;;4.22;1.83;;;;;;;;;;5078251;28;20023;-91
2023/11/18 11:31:12;;;;;;;6.55;2.35;;;;;;;;;;5071761;28;20029;-89
2023/11/18 11:33:43;;;;;;;9.55;2.33;;;;;;;;;;5074843;28;20031;-88
2023/11/18 11:36:12;;;;;;;7.43;2.63;;;;;;;;;;5067985;28;20032;-88
2023/11/18 11:38:37;;;;;;;6.32;2.42;;;;;;;;;;5076680;28;20020;-88
2023/11/18 11:41:07;;;;;;;9.70;2.33;;;;;;;;;;5076016;28;20054;-88
2023/11/18 11:43:34;;;;;;;7.82;1.98;;;;;;;;;;5075904;28;20067;-89
2023/11/18 11:46:03;;;;;;;13.75;2.40;;;;;;;;;;5078218;28;20016;-91
2023/11/18 11:48:35;;;;;;;6.00;2.15;;;;;;;;;;5071925;28;20021;-89
2023/11/18 11:51:16;;;;;;;5.30;2.42;;;;;;;;;;5077477;28;20031;-89
2023/11/18 11:53:52;;;;;;;7.63;2.35;;;;;;;;;;5072983;28;20024;-88
2023/11/18 11:56:21;;;;;;;8.93;2.47;;;;;;;;;;5074244;28;20025;-89
2023/11/18 11:58:51;;;;;;;7.93;2.30;;;;;;;;;;5075931;28;20099;-88
2023/11/18 12:01:32;;;;;;;6.78;2.22;;;;;;;;;;5081546;28;20028;-88
2023/11/18 12:03:57;;;;;;;11.13;2.25;;;;;;;;;;5076544;28;20417;-89
2023/11/18 12:06:23;;;;;;;11.70;3.05;;;;;;;;;;5076583;28;20445;-89
2023/11/18 12:08:58;;;;;;;10.10;2.60;;;;;;;;;;5080397;28;20029;-89
2023/11/18 12:11:23;;;;;;;13.80;2.67;;;;;;;;;;5090251;28;20031;-88
2023/11/18 12:17:09;;;;;;;6.85;1.70;;;;;;;;;;5061245;28;20035;-88
2023/11/18 12:19:58;;;;;;;5.45;1.70;;;;;;;;;;5094754;28;20023;-88
2023/11/18 12:22:24;;;;;;;2.75;1.70;;;;;;;;;;5105655;28;20038;-88
2023/11/18 12:24:58;;;;;;;3.45;1.90;;;;;;;;;;5085293;28;20350;-88
2023/11/18 12:27:39;;;;;;;6.13;1.95;;;;;;;;;;5095610;28;20024;-88
2023/11/18 12:30:09;;;;;;;4.72;1.80;;;;;;;;;;5089085;28;20043;-88
2023/11/18 12:32:53;;;;;;;5.60;1.67;;;;;;;;;;5098395;28;20039;-88
2023/11/18 12:35:22;;;;;;;4.63;2.13;;;;;;;;;;5093028;28;20479;-88
2023/11/18 12:37:51;;;;;;;5.65;2.30;;;;;;;;;;5093828;28;20024;-88
2023/11/18 12:40:34;;;;;;;7.28;2.03;;;;;;;;;;5094636;28;20027;-88
2023/11/18 12:43:05;;;;;;;5.88;1.58;;;;;;;;;;5089804;28;20026;-88
2023/11/18 12:46:01;;;;;;;9.20;2.25;;;;;;;;;;5093145;28;20111;-88
2023/11/18 12:48:27;;;;;;;5.55;2.03;;;;;;;;;;5070095;28;20542;-88
2023/11/18 12:50:55;;;;;;;6.80;2.03;;;;;;;;;;5105854;28;20461;-88
2023/11/18 12:53:24;;;;;;;5.57;2.22;;;;;;;;;;5095880;28;20034;-88
2023/11/18 12:55:49;;;;;;;3.60;1.60;;;;;;;;;;5098642;28;20035;-88
2023/11/18 12:58:14;;;;;;;7.15;2.45;;;;;;;;;;5090277;28;20119;-88
2023/11/18 13:00:42;;;;;;;6.32;2.30;;;;;;;;;;5091864;28;20089;-88
2023/11/18 13:03:10;;;;;;;5.40;2.25;;;;;;;;;;5092595;28;20028;-88
2023/11/18 13:05:36;;;;;;;5.75;2.08;;;;;;;;;;5093703;28;20088;-88
2023/11/18 13:08:02;;;;;;;3.75;2.05;;;;;;;;;;5094097;28;20024;-88
2023/11/18 13:10:27;;;;;;;4.97;2.45;;;;;;;;;;5093917;28;20026;-88
2023/11/18 13:12:57;;;;;;;8.32;3.00;;;;;;;;;;5090918;28;20055;-88
2023/11/18 13:15:24;;;;;;;10.60;3.08;;;;;;;;;;5085659;28;20376;-88
2023/11/18 13:18:00;;;;;;;58.88;4.30;;;;;;;;;;5092856;28;20074;-88
2023/11/18 13:20:26;;;;;;;12.73;2.78;;;;;;;;;;5078178;28;20024;-88
2023/11/18 13:22:52;;;;;;;7.40;2.58;;;;;;;;;;5097598;28;20110;-87
2023/11/18 13:25:17;;;;;;;17.13;4.15;;;;;;;;;;5092477;28;20385;-88
2023/11/18 13:27:43;;;;;;;9.68;3.30;;;;;;;;;;5092279;28;20438;-88
2023/11/18 13:30:12;;;;;;;10.43;3.70;;;;;;;;;;5092355;28;20032;-88
2023/11/18 13:32:40;;;;;;;14.10;3.50;;;;;;;;;;5077039;28;20023;-88
2023/11/18 13:35:07;;;;;;;6.15;3.10;;;;;;;;;;5089905;28;20028;-89
2023/11/18 13:37:32;;;;;;;10.23;3.83;;;;;;;;;;5092071;28;20040;-88
2023/11/18 13:40:00;;;;;;;15.15;3.67;;;;;;;;;;5097739;28;20026;-88
2023/11/18 13:42:28;;;;;;;10.98;3.83;;;;;;;;;;5089715;28;20059;-89
2023/11/18 13:44:53;;;;;;;7.40;4.00;;;;;;;;;;5093513;28;20039;-88
2023/11/18 13:47:22;;;;;;;21.27;4.43;;;;;;;;;;5092550;28;20028;-88
2023/11/18 13:49:53;;;;;;;6.18;3.28;;;;;;;;;;5091758;28;20024;-88
2023/11/18 13:52:19;;;;;;;9.77;3.50;;;;;;;;;;5092189;28;20020;-88
2023/11/18 13:54:45;;;;;;;12.07;3.83;;;;;;;;;;5093167;28;20047;-88
2023/11/18 13:57:11;;;;;;;7.75;4.15;;;;;;;;;;5090201;28;20061;-88
2023/11/18 13:59:37;;;;;;;4.57;3.35;;;;;;;;;;5089820;28;20482;-88
2023/11/18 14:02:04;;;;;;;9.07;3.70;;;;;;;;;;5093906;28;20023;-88
2023/11/18 14:04:29;;;;;;;7.80;3.88;;;;;;;;;;5092840;28;20426;-89
2023/11/18 14:06:59;;;;;;;11.98;4.05;;;;;;;;;;5093510;28;20016;-88
2023/11/18 14:09:29;;;;;;;7.38;4.07;;;;;;;;;;5092558;28;20457;-88
2023/11/18 14:11:55;;;;;;;7.97;3.75;;;;;;;;;;5093067;28;20525;-88
2023/11/18 14:14:20;;;;;;;8.05;4.63;;;;;;;;;;5082868;28;20028;-87
2023/11/18 14:16:46;;;;;;;8.07;4.05;;;;;;;;;;5093635;28;20066;-88
2023/11/18 14:19:11;;;;;;;11.85;5.32;;;;;;;;;;5091880;28;20028;-88
2023/11/18 14:21:39;;;;;;;9.23;3.63;;;;;;;;;;5092851;28;20019;-87
2023/11/18 14:24:04;;;;;;;8.75;4.55;;;;;;;;;;5097268;28;20284;-88
2023/11/18 14:26:30;;;;;;;9.25;3.92;;;;;;;;;;5094899;28;20055;-88
2023/11/18 14:28:56;;;;;;;15.02;3.85;;;;;;;;;;5096279;28;20070;-88
2023/11/18 14:31:22;;;;;;;8.05;4.10;;;;;;;;;;5088681;28;20461;-90
2023/11/18 14:33:48;;;;;;;8.40;3.92;;;;;;;;;;5091832;28;20020;-87
2023/11/18 14:36:14;;;;;;;5.70;3.65;;;;;;;;;;5096478;28;20472;-88